sensor_id;sensor_type;location;lat;lon;timestamp;P1;durP1;ratioP1;P2;durP2;ratioP2
57567;SDS011;43403;51.948;5.922;2023-06-04T00:02:11;4.65;;;1.38;;
57567;SDS011;43403;51.948;5.922;2023-06-04T00:04:38;2.70;;;1.27;;
57567;SDS011;43403;51.948;5.922;2023-06-04T00:07:05;1.83;;;0.95;;
57567;SDS011;43403;51.948;5.922;2023-06-04T00:09:31;4.32;;;1.10;;
57567;SDS011;43403;51.948;5.922;2023-06-04T00:11:58;3.30;;;1.20;;
57567;SDS011;43403;51.948;5.922;2023-06-04T00:14:24;2.40;;;1.48;;
57567;SDS011;43403;51.948;5.922;2023-06-04T00:16:51;3.72;;;2.22;;
57567;SDS011;43403;51.948;5.922;2023-06-04T00:19:18;3.78;;;1.33;;
57567;SDS011;43403;51.948;5.922;2023-06-04T00:21:44;2.90;;;1.10;;
57567;SDS011;43403;51.948;5.922;2023-06-04T00:24:11;3.63;;;1.30;;
57567;SDS011;43403;51.948;5.922;2023-06-04T00:26:41;3.13;;;1.30;;
57567;SDS011;43403;51.948;5.922;2023-06-04T00:29:07;3.13;;;1.30;;
57567;SDS011;43403;51.948;5.922;2023-06-04T00:31:34;4.90;;;1.38;;
57567;SDS011;43403;51.948;5.922;2023-06-04T00:34:04;1.92;;;1.25;;
57567;SDS011;43403;51.948;5.922;2023-06-04T00:36:31;3.97;;;1.45;;
57567;SDS011;43403;51.948;5.922;2023-06-04T00:38:57;3.00;;;1.17;;
57567;SDS011;43403;51.948;5.922;2023-06-04T00:41:24;5.10;;;1.25;;
57567;SDS011;43403;51.948;5.922;2023-06-04T00:43:51;3.08;;;1.40;;
57567;SDS011;43403;51.948;5.922;2023-06-04T00:46:25;3.70;;;1.50;;
57567;SDS011;43403;51.948;5.922;2023-06-04T00:48:53;3.70;;;1.30;;
57567;SDS011;43403;51.948;5.922;2023-06-04T00:51:21;6.97;;;1.90;;
57567;SDS011;43403;51.948;5.922;2023-06-04T00:53:49;4.55;;;1.40;;
57567;SDS011;43403;51.948;5.922;2023-06-04T00:56:16;2.97;;;1.48;;
57567;SDS011;43403;51.948;5.922;2023-06-04T00:58:44;5.88;;;2.22;;
57567;SDS011;43403;51.948;5.922;2023-06-04T01:01:15;5.05;;;1.77;;
57567;SDS011;43403;51.948;5.922;2023-06-04T01:04:03;1.60;;;1.10;;
57567;SDS011;43403;51.948;5.922;2023-06-04T01:09:05;2.47;;;1.30;;
57567;SDS011;43403;51.948;5.922;2023-06-04T01:11:35;2.20;;;1.27;;
57567;SDS011;43403;51.948;5.922;2023-06-04T01:14:06;2.88;;;1.23;;
57567;SDS011;43403;51.948;5.922;2023-06-04T01:16:35;4.50;;;1.48;;
57567;SDS011;43403;51.948;5.922;2023-06-04T01:19:21;2.50;;;1.35;;
57567;SDS011;43403;51.948;5.922;2023-06-04T01:21:50;3.33;;;1.48;;
57567;SDS011;43403;51.948;5.922;2023-06-04T01:24:21;4.22;;;1.50;;
57567;SDS011;43403;51.948;5.922;2023-06-04T01:26:51;3.60;;;1.35;;
57567;SDS011;43403;51.948;5.922;2023-06-04T01:29:22;3.08;;;1.23;;
57567;SDS011;43403;51.948;5.922;2023-06-04T01:31:49;2.97;;;1.30;;
57567;SDS011;43403;51.948;5.922;2023-06-04T01:34:18;3.05;;;1.30;;
57567;SDS011;43403;51.948;5.922;2023-06-04T01:36:45;2.97;;;1.40;;
57567;SDS011;43403;51.948;5.922;2023-06-04T01:39:11;2.28;;;1.27;;
57567;SDS011;43403;51.948;5.922;2023-06-04T01:41:38;3.10;;;1.30;;
57567;SDS011;43403;51.948;5.922;2023-06-04T01:44:04;2.80;;;1.20;;
57567;SDS011;43403;51.948;5.922;2023-06-04T01:46:31;5.88;;;2.60;;
57567;SDS011;43403;51.948;5.922;2023-06-04T01:48:57;8.27;;;2.38;;
57567;SDS011;43403;51.948;5.922;2023-06-04T01:51:24;2.63;;;1.48;;
57567;SDS011;43403;51.948;5.922;2023-06-04T01:53:50;2.35;;;1.23;;
57567;SDS011;43403;51.948;5.922;2023-06-04T01:56:17;3.75;;;1.40;;
57567;SDS011;43403;51.948;5.922;2023-06-04T01:58:43;2.40;;;1.10;;
57567;SDS011;43403;51.948;5.922;2023-06-04T02:01:10;5.43;;;1.50;;
57567;SDS011;43403;51.948;5.922;2023-06-04T02:03:36;2.47;;;1.40;;
57567;SDS011;43403;51.948;5.922;2023-06-04T02:06:04;3.72;;;1.63;;
57567;SDS011;43403;51.948;5.922;2023-06-04T02:08:34;2.45;;;1.17;;
57567;SDS011;43403;51.948;5.922;2023-06-04T02:11:01;1.97;;;1.23;;
57567;SDS011;43403;51.948;5.922;2023-06-04T02:13:28;4.22;;;1.20;;
57567;SDS011;43403;51.948;5.922;2023-06-04T02:15:54;2.63;;;1.10;;
57567;SDS011;43403;51.948;5.922;2023-06-04T02:18:21;3.20;;;1.30;;
57567;SDS011;43403;51.948;5.922;2023-06-04T02:20:48;6.38;;;1.75;;
57567;SDS011;43403;51.948;5.922;2023-06-04T02:23:16;5.63;;;1.70;;
57567;SDS011;43403;51.948;5.922;2023-06-04T02:25:44;2.25;;;1.23;;
57567;SDS011;43403;51.948;5.922;2023-06-04T02:28:11;1.88;;;1.38;;
57567;SDS011;43403;51.948;5.922;2023-06-04T02:30:39;2.58;;;1.17;;
57567;SDS011;43403;51.948;5.922;2023-06-04T02:33:05;3.13;;;1.48;;
57567;SDS011;43403;51.948;5.922;2023-06-04T02:35:32;3.33;;;1.38;;
57567;SDS011;43403;51.948;5.922;2023-06-04T02:37:58;6.00;;;1.40;;
57567;SDS011;43403;51.948;5.922;2023-06-04T02:40:25;4.18;;;1.33;;
57567;SDS011;43403;51.948;5.922;2023-06-04T02:42:54;2.38;;;1.20;;
57567;SDS011;43403;51.948;5.922;2023-06-04T02:45:25;5.28;;;1.30;;
57567;SDS011;43403;51.948;5.922;2023-06-04T02:47:51;6.15;;;1.30;;
57567;SDS011;43403;51.948;5.922;2023-06-04T02:50:18;3.38;;;1.40;;
57567;SDS011;43403;51.948;5.922;2023-06-04T02:52:44;4.03;;;1.45;;
57567;SDS011;43403;51.948;5.922;2023-06-04T02:55:11;7.38;;;1.73;;
57567;SDS011;43403;51.948;5.922;2023-06-04T02:57:39;3.47;;;1.40;;
57567;SDS011;43403;51.948;5.922;2023-06-04T03:00:08;2.22;;;1.20;;
57567;SDS011;43403;51.948;5.922;2023-06-04T03:02:43;4.88;;;1.40;;
57567;SDS011;43403;51.948;5.922;2023-06-04T03:05:12;2.72;;;1.70;;
57567;SDS011;43403;51.948;5.922;2023-06-04T03:07:41;2.58;;;1.40;;
57567;SDS011;43403;51.948;5.922;2023-06-04T03:10:09;3.40;;;1.20;;
57567;SDS011;43403;51.948;5.922;2023-06-04T03:12:36;3.85;;;1.40;;
57567;SDS011;43403;51.948;5.922;2023-06-04T03:15:03;6.18;;;1.65;;
57567;SDS011;43403;51.948;5.922;2023-06-04T03:17:30;5.20;;;1.75;;
57567;SDS011;43403;51.948;5.922;2023-06-04T03:20:00;6.30;;;1.45;;
57567;SDS011;43403;51.948;5.922;2023-06-04T03:22:27;3.28;;;1.52;;
57567;SDS011;43403;51.948;5.922;2023-06-04T03:24:54;3.33;;;1.50;;
57567;SDS011;43403;51.948;5.922;2023-06-04T03:27:21;3.75;;;1.38;;
57567;SDS011;43403;51.948;5.922;2023-06-04T03:29:48;2.60;;;1.40;;
57567;SDS011;43403;51.948;5.922;2023-06-04T03:32:14;3.10;;;1.40;;
57567;SDS011;43403;51.948;5.922;2023-06-04T03:34:42;3.58;;;1.60;;
57567;SDS011;43403;51.948;5.922;2023-06-04T03:37:09;3.35;;;1.38;;
57567;SDS011;43403;51.948;5.922;2023-06-04T03:39:36;3.28;;;1.55;;
57567;SDS011;43403;51.948;5.922;2023-06-04T03:42:02;7.93;;;2.10;;
57567;SDS011;43403;51.948;5.922;2023-06-04T03:44:29;5.30;;;1.60;;
57567;SDS011;43403;51.948;5.922;2023-06-04T03:46:55;3.17;;;1.85;;
57567;SDS011;43403;51.948;5.922;2023-06-04T03:49:22;7.32;;;1.77;;
57567;SDS011;43403;51.948;5.922;2023-06-04T03:51:48;7.70;;;1.70;;
57567;SDS011;43403;51.948;5.922;2023-06-04T03:54:15;5.57;;;1.70;;
57567;SDS011;43403;51.948;5.922;2023-06-04T03:56:47;3.17;;;1.42;;
57567;SDS011;43403;51.948;5.922;2023-06-04T03:59:13;3.90;;;1.65;;
57567;SDS011;43403;51.948;5.922;2023-06-04T04:01:41;4.93;;;1.80;;
57567;SDS011;43403;51.948;5.922;2023-06-04T04:04:08;2.97;;;1.52;;
57567;SDS011;43403;51.948;5.922;2023-06-04T04:06:35;4.28;;;1.83;;
57567;SDS011;43403;51.948;5.922;2023-06-04T04:09:02;5.00;;;1.52;;
57567;SDS011;43403;51.948;5.922;2023-06-04T04:11:29;6.47;;;1.70;;
57567;SDS011;43403;51.948;5.922;2023-06-04T04:13:56;5.57;;;1.85;;
57567;SDS011;43403;51.948;5.922;2023-06-04T04:16:22;4.82;;;1.70;;
57567;SDS011;43403;51.948;5.922;2023-06-04T04:18:49;4.05;;;1.70;;
57567;SDS011;43403;51.948;5.922;2023-06-04T04:21:15;5.65;;;1.85;;
57567;SDS011;43403;51.948;5.922;2023-06-04T04:23:42;4.95;;;1.58;;
57567;SDS011;43403;51.948;5.922;2023-06-04T04:26:08;4.53;;;1.77;;
57567;SDS011;43403;51.948;5.922;2023-06-04T04:28:36;5.95;;;1.60;;
57567;SDS011;43403;51.948;5.922;2023-06-04T04:31:03;5.60;;;1.92;;
57567;SDS011;43403;51.948;5.922;2023-06-04T04:33:30;7.57;;;2.00;;
57567;SDS011;43403;51.948;5.922;2023-06-04T04:36:03;3.95;;;1.55;;
57567;SDS011;43403;51.948;5.922;2023-06-04T04:38:29;6.05;;;2.00;;
57567;SDS011;43403;51.948;5.922;2023-06-04T04:40:59;2.78;;;1.60;;
57567;SDS011;43403;51.948;5.922;2023-06-04T04:45:59;6.38;;;1.88;;
57567;SDS011;43403;51.948;5.922;2023-06-04T04:48:26;4.43;;;1.92;;
57567;SDS011;43403;51.948;5.922;2023-06-04T04:50:53;3.65;;;1.63;;
57567;SDS011;43403;51.948;5.922;2023-06-04T04:53:20;5.68;;;1.88;;
57567;SDS011;43403;51.948;5.922;2023-06-04T04:55:46;5.63;;;1.98;;
57567;SDS011;43403;51.948;5.922;2023-06-04T04:58:13;5.53;;;2.22;;
57567;SDS011;43403;51.948;5.922;2023-06-04T05:00:40;5.78;;;1.75;;
57567;SDS011;43403;51.948;5.922;2023-06-04T05:03:07;6.45;;;1.92;;
57567;SDS011;43403;51.948;5.922;2023-06-04T05:05:34;8.73;;;1.88;;
57567;SDS011;43403;51.948;5.922;2023-06-04T05:08:00;3.90;;;1.98;;
57567;SDS011;43403;51.948;5.922;2023-06-04T05:10:27;4.95;;;1.85;;
57567;SDS011;43403;51.948;5.922;2023-06-04T05:12:54;3.45;;;1.38;;
57567;SDS011;43403;51.948;5.922;2023-06-04T05:15:22;7.10;;;2.20;;
57567;SDS011;43403;51.948;5.922;2023-06-04T05:17:50;4.00;;;1.85;;
57567;SDS011;43403;51.948;5.922;2023-06-04T05:20:19;3.50;;;1.73;;
57567;SDS011;43403;51.948;5.922;2023-06-04T05:22:47;2.42;;;1.50;;
57567;SDS011;43403;51.948;5.922;2023-06-04T05:25:14;6.00;;;2.20;;
57567;SDS011;43403;51.948;5.922;2023-06-04T05:27:41;5.18;;;2.28;;
57567;SDS011;43403;51.948;5.922;2023-06-04T05:30:08;3.38;;;1.60;;
57567;SDS011;43403;51.948;5.922;2023-06-04T05:32:35;4.15;;;2.13;;
57567;SDS011;43403;51.948;5.922;2023-06-04T05:35:07;4.40;;;1.95;;
57567;SDS011;43403;51.948;5.922;2023-06-04T05:37:35;6.97;;;2.20;;
57567;SDS011;43403;51.948;5.922;2023-06-04T05:40:04;8.48;;;2.20;;
57567;SDS011;43403;51.948;5.922;2023-06-04T05:42:32;5.38;;;2.15;;
57567;SDS011;43403;51.948;5.922;2023-06-04T05:44:58;4.18;;;1.95;;
57567;SDS011;43403;51.948;5.922;2023-06-04T05:47:25;7.57;;;2.30;;
57567;SDS011;43403;51.948;5.922;2023-06-04T05:49:55;4.30;;;1.70;;
57567;SDS011;43403;51.948;5.922;2023-06-04T05:52:22;4.57;;;1.90;;
57567;SDS011;43403;51.948;5.922;2023-06-04T05:54:49;9.55;;;2.10;;
57567;SDS011;43403;51.948;5.922;2023-06-04T05:57:15;5.43;;;2.10;;
57567;SDS011;43403;51.948;5.922;2023-06-04T05:59:42;6.25;;;2.20;;
57567;SDS011;43403;51.948;5.922;2023-06-04T06:02:08;5.35;;;1.67;;
57567;SDS011;43403;51.948;5.922;2023-06-04T06:04:35;5.15;;;2.13;;
57567;SDS011;43403;51.948;5.922;2023-06-04T06:07:02;6.75;;;2.38;;
57567;SDS011;43403;51.948;5.922;2023-06-04T06:09:28;6.53;;;2.05;;
57567;SDS011;43403;51.948;5.922;2023-06-04T06:11:55;7.55;;;2.20;;
57567;SDS011;43403;51.948;5.922;2023-06-04T06:14:21;5.93;;;2.40;;
57567;SDS011;43403;51.948;5.922;2023-06-04T06:16:49;5.05;;;2.03;;
57567;SDS011;43403;51.948;5.922;2023-06-04T06:19:16;2.95;;;1.60;;
57567;SDS011;43403;51.948;5.922;2023-06-04T06:21:43;3.13;;;1.70;;
57567;SDS011;43403;51.948;5.922;2023-06-04T06:24:09;8.95;;;2.10;;
57567;SDS011;43403;51.948;5.922;2023-06-04T06:26:36;2.75;;;1.92;;
57567;SDS011;43403;51.948;5.922;2023-06-04T06:29:03;4.85;;;2.10;;
57567;SDS011;43403;51.948;5.922;2023-06-04T06:31:29;5.78;;;2.38;;
57567;SDS011;43403;51.948;5.922;2023-06-04T06:33:56;5.90;;;2.63;;
57567;SDS011;43403;51.948;5.922;2023-06-04T06:36:22;5.82;;;2.97;;
57567;SDS011;43403;51.948;5.922;2023-06-04T06:38:49;7.00;;;2.80;;
57567;SDS011;43403;51.948;5.922;2023-06-04T06:41:16;5.78;;;2.53;;
57567;SDS011;43403;51.948;5.922;2023-06-04T06:43:43;4.43;;;2.47;;
57567;SDS011;43403;51.948;5.922;2023-06-04T06:46:09;4.40;;;2.28;;
57567;SDS011;43403;51.948;5.922;2023-06-04T06:48:36;4.47;;;1.92;;
57567;SDS011;43403;51.948;5.922;2023-06-04T06:51:03;6.85;;;2.10;;
57567;SDS011;43403;51.948;5.922;2023-06-04T06:53:29;6.72;;;2.10;;
57567;SDS011;43403;51.948;5.922;2023-06-04T06:55:56;3.90;;;1.83;;
57567;SDS011;43403;51.948;5.922;2023-06-04T06:58:22;6.28;;;2.20;;
57567;SDS011;43403;51.948;5.922;2023-06-04T07:00:49;6.35;;;2.38;;
57567;SDS011;43403;51.948;5.922;2023-06-04T07:03:16;5.95;;;1.95;;
57567;SDS011;43403;51.948;5.922;2023-06-04T07:05:43;3.67;;;1.80;;
57567;SDS011;43403;51.948;5.922;2023-06-04T07:08:09;4.05;;;1.63;;
57567;SDS011;43403;51.948;5.922;2023-06-04T07:10:35;3.38;;;1.80;;
57567;SDS011;43403;51.948;5.922;2023-06-04T07:13:02;2.88;;;1.58;;
57567;SDS011;43403;51.948;5.922;2023-06-04T07:15:28;3.45;;;1.90;;
57567;SDS011;43403;51.948;5.922;2023-06-04T07:17:55;5.60;;;2.15;;
57567;SDS011;43403;51.948;5.922;2023-06-04T07:20:21;3.53;;;1.75;;
57567;SDS011;43403;51.948;5.922;2023-06-04T07:22:48;4.10;;;1.58;;
57567;SDS011;43403;51.948;5.922;2023-06-04T07:25:14;5.65;;;1.75;;
57567;SDS011;43403;51.948;5.922;2023-06-04T07:27:41;5.63;;;2.17;;
57567;SDS011;43403;51.948;5.922;2023-06-04T07:30:08;12.75;;;2.10;;
57567;SDS011;43403;51.948;5.922;2023-06-04T07:32:35;3.60;;;1.85;;
57567;SDS011;43403;51.948;5.922;2023-06-04T07:35:02;4.15;;;1.73;;
57567;SDS011;43403;51.948;5.922;2023-06-04T07:37:29;3.28;;;1.80;;
57567;SDS011;43403;51.948;5.922;2023-06-04T07:39:56;2.63;;;1.48;;
57567;SDS011;43403;51.948;5.922;2023-06-04T07:42:22;1.85;;;1.42;;
57567;SDS011;43403;51.948;5.922;2023-06-04T07:44:49;5.93;;;1.58;;
57567;SDS011;43403;51.948;5.922;2023-06-04T07:47:15;2.90;;;1.45;;
57567;SDS011;43403;51.948;5.922;2023-06-04T07:49:42;3.83;;;1.83;;
57567;SDS011;43403;51.948;5.922;2023-06-04T07:52:26;2.30;;;1.30;;
57567;SDS011;43403;51.948;5.922;2023-06-04T07:54:53;3.95;;;1.70;;
57567;SDS011;43403;51.948;5.922;2023-06-04T07:57:19;4.30;;;1.60;;
57567;SDS011;43403;51.948;5.922;2023-06-04T07:59:46;4.32;;;1.40;;
57567;SDS011;43403;51.948;5.922;2023-06-04T08:02:12;3.33;;;1.48;;
57567;SDS011;43403;51.948;5.922;2023-06-04T08:04:41;3.70;;;1.65;;
57567;SDS011;43403;51.948;5.922;2023-06-04T08:07:07;4.22;;;1.65;;
57567;SDS011;43403;51.948;5.922;2023-06-04T08:09:34;3.72;;;1.50;;
57567;SDS011;43403;51.948;5.922;2023-06-04T08:12:00;5.00;;;1.52;;
57567;SDS011;43403;51.948;5.922;2023-06-04T08:14:27;3.22;;;1.50;;
57567;SDS011;43403;51.948;5.922;2023-06-04T08:16:53;3.60;;;1.55;;
57567;SDS011;43403;51.948;5.922;2023-06-04T08:19:20;4.10;;;1.60;;
57567;SDS011;43403;51.948;5.922;2023-06-04T08:21:46;5.95;;;1.77;;
57567;SDS011;43403;51.948;5.922;2023-06-04T08:24:13;4.38;;;1.60;;
57567;SDS011;43403;51.948;5.922;2023-06-04T08:26:40;4.22;;;1.70;;
57567;SDS011;43403;51.948;5.922;2023-06-04T08:29:07;3.63;;;1.40;;
57567;SDS011;43403;51.948;5.922;2023-06-04T08:31:33;3.40;;;1.55;;
57567;SDS011;43403;51.948;5.922;2023-06-04T08:34:00;5.22;;;1.98;;
57567;SDS011;43403;51.948;5.922;2023-06-04T08:36:27;2.75;;;1.50;;
57567;SDS011;43403;51.948;5.922;2023-06-04T08:38:54;6.28;;;1.63;;
57567;SDS011;43403;51.948;5.922;2023-06-04T08:41:34;3.00;;;1.42;;
57567;SDS011;43403;51.948;5.922;2023-06-04T08:44:17;3.13;;;1.30;;
57567;SDS011;43403;51.948;5.922;2023-06-04T08:46:44;2.10;;;1.00;;
57567;SDS011;43403;51.948;5.922;2023-06-04T08:49:13;6.32;;;1.50;;
57567;SDS011;43403;51.948;5.922;2023-06-04T08:51:41;3.50;;;1.30;;
57567;SDS011;43403;51.948;5.922;2023-06-04T08:54:08;3.25;;;1.20;;
57567;SDS011;43403;51.948;5.922;2023-06-04T08:56:36;2.72;;;1.27;;
57567;SDS011;43403;51.948;5.922;2023-06-04T08:59:04;3.83;;;1.42;;
57567;SDS011;43403;51.948;5.922;2023-06-04T09:01:35;1.77;;;1.02;;
57567;SDS011;43403;51.948;5.922;2023-06-04T09:04:04;3.78;;;1.45;;
57567;SDS011;43403;51.948;5.922;2023-06-04T09:06:36;6.03;;;1.40;;
57567;SDS011;43403;51.948;5.922;2023-06-04T09:09:04;5.65;;;1.67;;
57567;SDS011;43403;51.948;5.922;2023-06-04T09:11:36;2.72;;;1.20;;
57567;SDS011;43403;51.948;5.922;2023-06-04T09:14:08;3.75;;;1.42;;
57567;SDS011;43403;51.948;5.922;2023-06-04T09:16:51;3.25;;;1.20;;
57567;SDS011;43403;51.948;5.922;2023-06-04T09:19:19;2.90;;;1.17;;
57567;SDS011;43403;51.948;5.922;2023-06-04T09:24:23;4.32;;;1.00;;
57567;SDS011;43403;51.948;5.922;2023-06-04T09:26:51;3.75;;;1.20;;
57567;SDS011;43403;51.948;5.922;2023-06-04T09:29:18;4.90;;;1.45;;
57567;SDS011;43403;51.948;5.922;2023-06-04T09:31:45;6.70;;;1.58;;
57567;SDS011;43403;51.948;5.922;2023-06-04T09:34:13;3.33;;;1.20;;
57567;SDS011;43403;51.948;5.922;2023-06-04T09:36:41;2.83;;;0.90;;
57567;SDS011;43403;51.948;5.922;2023-06-04T09:39:14;2.20;;;1.17;;
57567;SDS011;43403;51.948;5.922;2023-06-04T09:41:42;2.35;;;1.13;;
57567;SDS011;43403;51.948;5.922;2023-06-04T09:44:08;3.50;;;1.30;;
57567;SDS011;43403;51.948;5.922;2023-06-04T09:49:04;1.77;;;1.10;;
57567;SDS011;43403;51.948;5.922;2023-06-04T09:51:31;2.00;;;1.17;;
57567;SDS011;43403;51.948;5.922;2023-06-04T09:54:00;2.20;;;1.20;;
57567;SDS011;43403;51.948;5.922;2023-06-04T09:56:29;2.55;;;0.85;;
57567;SDS011;43403;51.948;5.922;2023-06-04T09:59:05;1.25;;;1.00;;
57567;SDS011;43403;51.948;5.922;2023-06-04T10:01:32;1.90;;;0.90;;
57567;SDS011;43403;51.948;5.922;2023-06-04T10:04:02;2.40;;;0.90;;
57567;SDS011;43403;51.948;5.922;2023-06-04T10:06:32;4.35;;;1.00;;
57567;SDS011;43403;51.948;5.922;2023-06-04T10:09:02;3.70;;;1.02;;
57567;SDS011;43403;51.948;5.922;2023-06-04T10:11:34;2.55;;;1.42;;
57567;SDS011;43403;51.948;5.922;2023-06-04T10:14:02;4.57;;;1.10;;
57567;SDS011;43403;51.948;5.922;2023-06-04T10:16:34;2.05;;;1.15;;
57567;SDS011;43403;51.948;5.922;2023-06-04T10:19:04;2.40;;;1.15;;
57567;SDS011;43403;51.948;5.922;2023-06-04T10:21:33;1.30;;;1.20;;
57567;SDS011;43403;51.948;5.922;2023-06-04T10:24:02;3.70;;;1.10;;
57567;SDS011;43403;51.948;5.922;2023-06-04T10:26:29;2.58;;;1.25;;
57567;SDS011;43403;51.948;5.922;2023-06-04T10:28:56;1.95;;;0.95;;
57567;SDS011;43403;51.948;5.922;2023-06-04T10:33:54;3.45;;;1.30;;
57567;SDS011;43403;51.948;5.922;2023-06-04T10:36:24;3.20;;;1.20;;
57567;SDS011;43403;51.948;5.922;2023-06-04T10:38:52;4.25;;;1.10;;
57567;SDS011;43403;51.948;5.922;2023-06-04T10:41:21;4.03;;;1.30;;
57567;SDS011;43403;51.948;5.922;2023-06-04T10:43:49;3.38;;;1.35;;
57567;SDS011;43403;51.948;5.922;2023-06-04T10:46:18;1.73;;;1.20;;
57567;SDS011;43403;51.948;5.922;2023-06-04T10:48:46;2.55;;;1.17;;
57567;SDS011;43403;51.948;5.922;2023-06-04T10:51:28;4.22;;;1.35;;
57567;SDS011;43403;51.948;5.922;2023-06-04T10:54:00;2.58;;;1.20;;
57567;SDS011;43403;51.948;5.922;2023-06-04T10:56:31;2.40;;;1.05;;
57567;SDS011;43403;51.948;5.922;2023-06-04T10:58:59;6.13;;;1.30;;
57567;SDS011;43403;51.948;5.922;2023-06-04T11:01:29;3.78;;;1.20;;
57567;SDS011;43403;51.948;5.922;2023-06-04T11:03:58;3.03;;;1.10;;
57567;SDS011;43403;51.948;5.922;2023-06-04T11:06:24;5.68;;;1.30;;
57567;SDS011;43403;51.948;5.922;2023-06-04T11:09:03;2.70;;;1.08;;
57567;SDS011;43403;51.948;5.922;2023-06-04T11:11:31;2.63;;;1.33;;
57567;SDS011;43403;51.948;5.922;2023-06-04T11:14:10;4.47;;;1.43;;
57567;SDS011;43403;51.948;5.922;2023-06-04T11:16:39;4.90;;;1.30;;
57567;SDS011;43403;51.948;5.922;2023-06-04T11:19:05;2.22;;;1.10;;
57567;SDS011;43403;51.948;5.922;2023-06-04T11:21:33;3.20;;;1.10;;
57567;SDS011;43403;51.948;5.922;2023-06-04T11:24:02;2.95;;;1.35;;
57567;SDS011;43403;51.948;5.922;2023-06-04T11:26:30;1.93;;;1.00;;
57567;SDS011;43403;51.948;5.922;2023-06-04T11:29:05;4.65;;;1.20;;
57567;SDS011;43403;51.948;5.922;2023-06-04T11:31:48;2.05;;;1.25;;
57567;SDS011;43403;51.948;5.922;2023-06-04T11:34:24;3.05;;;1.00;;
57567;SDS011;43403;51.948;5.922;2023-06-04T11:36:52;3.38;;;1.20;;
57567;SDS011;43403;51.948;5.922;2023-06-04T11:39:21;2.25;;;1.10;;
57567;SDS011;43403;51.948;5.922;2023-06-04T11:41:50;3.00;;;1.48;;
57567;SDS011;43403;51.948;5.922;2023-06-04T11:44:20;1.73;;;1.10;;
57567;SDS011;43403;51.948;5.922;2023-06-04T11:46:46;2.85;;;1.35;;
57567;SDS011;43403;51.948;5.922;2023-06-04T11:49:15;4.60;;;1.35;;
57567;SDS011;43403;51.948;5.922;2023-06-04T11:51:45;2.15;;;1.10;;
57567;SDS011;43403;51.948;5.922;2023-06-04T11:54:13;2.38;;;1.10;;
57567;SDS011;43403;51.948;5.922;2023-06-04T11:59:13;2.13;;;1.33;;
57567;SDS011;43403;51.948;5.922;2023-06-04T12:01:40;3.50;;;1.33;;
57567;SDS011;43403;51.948;5.922;2023-06-04T12:04:12;4.20;;;1.40;;
57567;SDS011;43403;51.948;5.922;2023-06-04T12:06:52;4.53;;;1.52;;
57567;SDS011;43403;51.948;5.922;2023-06-04T12:09:23;2.70;;;1.30;;
57567;SDS011;43403;51.948;5.922;2023-06-04T12:12:00;3.42;;;1.25;;
57567;SDS011;43403;51.948;5.922;2023-06-04T12:14:28;2.05;;;1.20;;
57567;SDS011;43403;51.948;5.922;2023-06-04T12:16:59;3.65;;;1.23;;
57567;SDS011;43403;51.948;5.922;2023-06-04T12:19:26;2.38;;;1.30;;
57567;SDS011;43403;51.948;5.922;2023-06-04T12:22:03;1.88;;;1.30;;
57567;SDS011;43403;51.948;5.922;2023-06-04T12:24:35;3.28;;;1.10;;
57567;SDS011;43403;51.948;5.922;2023-06-04T12:27:13;3.50;;;1.27;;
57567;SDS011;43403;51.948;5.922;2023-06-04T12:29:39;1.73;;;1.10;;
57567;SDS011;43403;51.948;5.922;2023-06-04T12:32:07;1.63;;;1.20;;
57567;SDS011;43403;51.948;5.922;2023-06-04T12:34:37;4.10;;;2.67;;
57567;SDS011;43403;51.948;5.922;2023-06-04T12:39:32;2.53;;;1.20;;
57567;SDS011;43403;51.948;5.922;2023-06-04T12:42:00;5.57;;;1.65;;
57567;SDS011;43403;51.948;5.922;2023-06-04T12:44:26;2.22;;;1.52;;
57567;SDS011;43403;51.948;5.922;2023-06-04T12:46:53;2.58;;;1.40;;
57567;SDS011;43403;51.948;5.922;2023-06-04T12:49:19;2.58;;;1.40;;
57567;SDS011;43403;51.948;5.922;2023-06-04T12:51:46;2.42;;;1.30;;
57567;SDS011;43403;51.948;5.922;2023-06-04T12:54:13;6.38;;;1.20;;
57567;SDS011;43403;51.948;5.922;2023-06-04T12:56:39;2.58;;;1.10;;
57567;SDS011;43403;51.948;5.922;2023-06-04T12:59:09;3.15;;;1.40;;
57567;SDS011;43403;51.948;5.922;2023-06-04T13:01:36;3.78;;;1.38;;
57567;SDS011;43403;51.948;5.922;2023-06-04T13:04:04;3.00;;;1.50;;
57567;SDS011;43403;51.948;5.922;2023-06-04T13:08:58;3.15;;;1.33;;
57567;SDS011;43403;51.948;5.922;2023-06-04T13:11:24;2.97;;;1.50;;
57567;SDS011;43403;51.948;5.922;2023-06-04T13:13:51;3.38;;;1.50;;
57567;SDS011;43403;51.948;5.922;2023-06-04T13:16:17;2.10;;;1.27;;
57567;SDS011;43403;51.948;5.922;2023-06-04T13:18:44;3.78;;;1.60;;
57567;SDS011;43403;51.948;5.922;2023-06-04T13:21:10;2.37;;;1.63;;
57567;SDS011;43403;51.948;5.922;2023-06-04T13:23:37;3.10;;;1.55;;
57567;SDS011;43403;51.948;5.922;2023-06-04T13:26:18;2.38;;;1.40;;
57567;SDS011;43403;51.948;5.922;2023-06-04T13:28:45;2.33;;;1.25;;
57567;SDS011;43403;51.948;5.922;2023-06-04T13:33:39;3.60;;;1.50;;
57567;SDS011;43403;51.948;5.922;2023-06-04T13:36:05;2.67;;;1.27;;
57567;SDS011;43403;51.948;5.922;2023-06-04T13:38:32;1.90;;;1.40;;
57567;SDS011;43403;51.948;5.922;2023-06-04T13:40:59;3.17;;;1.60;;
57567;SDS011;43403;51.948;5.922;2023-06-04T13:43:26;3.83;;;1.40;;
57567;SDS011;43403;51.948;5.922;2023-06-04T13:45:52;2.33;;;1.50;;
57567;SDS011;43403;51.948;5.922;2023-06-04T13:48:19;3.63;;;1.60;;
57567;SDS011;43403;51.948;5.922;2023-06-04T13:50:45;2.42;;;1.30;;
57567;SDS011;43403;51.948;5.922;2023-06-04T13:53:12;3.88;;;1.70;;
57567;SDS011;43403;51.948;5.922;2023-06-04T13:55:39;2.22;;;1.35;;
57567;SDS011;43403;51.948;5.922;2023-06-04T13:58:05;6.97;;;1.73;;
57567;SDS011;43403;51.948;5.922;2023-06-04T14:00:35;4.27;;;1.40;;
57567;SDS011;43403;51.948;5.922;2023-06-04T14:03:02;3.95;;;1.52;;
57567;SDS011;43403;51.948;5.922;2023-06-04T14:05:29;4.00;;;1.57;;
57567;SDS011;43403;51.948;5.922;2023-06-04T14:07:56;3.92;;;1.40;;
57567;SDS011;43403;51.948;5.922;2023-06-04T14:12:50;5.50;;;1.57;;
57567;SDS011;43403;51.948;5.922;2023-06-04T14:15:17;1.98;;;1.40;;
57567;SDS011;43403;51.948;5.922;2023-06-04T14:17:43;4.93;;;1.60;;
57567;SDS011;43403;51.948;5.922;2023-06-04T14:20:10;2.22;;;1.40;;
57567;SDS011;43403;51.948;5.922;2023-06-04T14:22:37;2.13;;;1.50;;
57567;SDS011;43403;51.948;5.922;2023-06-04T14:25:04;3.45;;;1.52;;
57567;SDS011;43403;51.948;5.922;2023-06-04T14:27:32;2.72;;;1.40;;
57567;SDS011;43403;51.948;5.922;2023-06-04T14:30:00;6.55;;;1.63;;
57567;SDS011;43403;51.948;5.922;2023-06-04T14:32:30;3.25;;;1.63;;
57567;SDS011;43403;51.948;5.922;2023-06-04T14:34:58;3.03;;;1.58;;
57567;SDS011;43403;51.948;5.922;2023-06-04T14:37:24;3.88;;;1.77;;
57567;SDS011;43403;51.948;5.922;2023-06-04T14:39:51;3.95;;;1.92;;
57567;SDS011;43403;51.948;5.922;2023-06-04T14:42:18;4.93;;;1.60;;
57567;SDS011;43403;51.948;5.922;2023-06-04T14:44:45;2.03;;;1.37;;
57567;SDS011;43403;51.948;5.922;2023-06-04T14:47:12;3.65;;;1.67;;
57567;SDS011;43403;51.948;5.922;2023-06-04T14:49:38;3.20;;;1.63;;
57567;SDS011;43403;51.948;5.922;2023-06-04T14:52:05;3.38;;;1.50;;
57567;SDS011;43403;51.948;5.922;2023-06-04T14:54:32;3.67;;;1.63;;
57567;SDS011;43403;51.948;5.922;2023-06-04T14:56:59;4.50;;;1.70;;
57567;SDS011;43403;51.948;5.922;2023-06-04T14:59:26;3.37;;;1.50;;
57567;SDS011;43403;51.948;5.922;2023-06-04T15:01:52;4.97;;;1.40;;
57567;SDS011;43403;51.948;5.922;2023-06-04T15:04:19;3.35;;;1.65;;
57567;SDS011;43403;51.948;5.922;2023-06-04T15:06:46;2.93;;;1.47;;
57567;SDS011;43403;51.948;5.922;2023-06-04T15:09:13;3.20;;;1.65;;
57567;SDS011;43403;51.948;5.922;2023-06-04T15:11:40;2.25;;;1.40;;
57567;SDS011;43403;51.948;5.922;2023-06-04T15:14:07;3.00;;;1.60;;
57567;SDS011;43403;51.948;5.922;2023-06-04T15:16:33;4.85;;;1.70;;
57567;SDS011;43403;51.948;5.922;2023-06-04T15:19:00;3.93;;;2.17;;